Time;durP1;ratioP1;P1;durP2;ratioP2;P2;SDS_P1;SDS_P2;PMS_P1;PMS_P2;Temp;Humidity;BMP_temperature;BMP_pressure;BME280_temperature;BME280_humidity;BME280_pressure;Samples;Min_cycle;Max_cycle;Signal;HPM_P1;HPM_P2
2021/08/15 00:01:49;;;;;;;8.85;2.52;;;;;;;16.09;64.69;99454.52;1765241;79;21084;-70
2021/08/15 00:04:15;;;;;;;5.20;2.50;;;;;;;16.11;64.72;99454.41;1773296;79;20989;-70
2021/08/15 00:06:42;;;;;;;4.87;2.40;;;;;;;16.14;64.95;99464.72;1760652;80;21062;-70
2021/08/15 00:09:09;;;;;;;4.40;2.00;;;;;;;16.11;64.99;99457.05;1790939;78;21558;-70
2021/08/15 00:11:36;;;;;;;3.75;2.10;;;;;;;16.08;65.17;99459.91;1766719;80;21593;-70
2021/08/15 00:14:03;;;;;;;6.47;2.17;;;;;;;15.94;65.37;99442.98;1729613;81;21059;-69
2021/08/15 00:16:29;;;;;;;8.15;2.67;;;;;;;16.02;65.46;99465.61;1797872;79;21000;-70
2021/08/15 00:18:56;;;;;;;6.75;2.30;;;;;;;15.98;65.63;99464.17;1772429;79;20977;-70
2021/08/15 00:21:23;;;;;;;3.97;2.10;;;;;;;15.95;66.00;99460.45;1757734;81;21025;-69
2021/08/15 00:23:49;;;;;;;4.72;2.80;;;;;;;15.86;65.85;99458.85;1805168;78;21066;-69
2021/08/15 00:26:16;;;;;;;4.90;2.58;;;;;;;15.79;65.93;99468.14;1779366;79;21797;-69
2021/08/15 00:28:43;;;;;;;4.33;2.98;;;;;;;15.75;66.23;99468.02;1778381;79;20969;-69
2021/08/15 00:31:11;;;;;;;5.00;2.58;;;;;;;15.67;66.36;99466.38;1756123;79;20977;-70
2021/08/15 00:33:38;;;;;;;6.25;2.98;;;;;;;15.62;66.51;99473.75;1768074;79;20985;-69
2021/08/15 00:36:05;;;;;;;5.42;2.10;;;;;;;15.58;66.70;99477.58;1791353;78;21096;-70
2021/08/15 00:38:32;;;;;;;6.55;2.30;;;;;;;15.52;66.94;99467.50;1752939;79;21733;-69
2021/08/15 00:41:00;;;;;;;4.92;2.33;;;;;;;15.41;66.94;99471.72;1791512;78;21878;-69
2021/08/15 00:43:28;;;;;;;4.42;1.92;;;;;;;15.29;68.43;99456.83;1767501;79;21606;-70
2021/08/15 00:45:55;;;;;;;4.42;2.40;;;;;;;15.17;67.30;99460.30;1765510;79;21103;-69
2021/08/15 00:48:21;;;;;;;7.42;2.40;;;;;;;15.11;67.48;99454.16;1801262;79;21579;-70
2021/08/15 00:50:49;;;;;;;5.53;2.60;;;;;;;15.05;67.51;99455.91;1790697;79;21520;-70
2021/08/15 00:53:15;;;;;;;5.15;2.52;;;;;;;14.98;67.55;99455.03;1780641;79;20933;-70
2021/08/15 00:55:42;;;;;;;6.00;2.58;;;;;;;14.95;67.71;99446.02;1794269;79;21041;-69
2021/08/15 00:58:09;;;;;;;4.67;2.30;;;;;;;14.94;67.73;99446.14;1787310;79;20962;-70
2021/08/15 01:00:38;;;;;;;6.25;1.98;;;;;;;14.92;67.93;99442.77;1792390;79;21035;-70
2021/08/15 01:03:05;;;;;;;4.30;2.20;;;;;;;14.89;68.07;99441.19;1796519;79;21095;-70
2021/08/15 01:05:32;;;;;;;5.17;2.83;;;;;;;14.89;68.21;99433.30;1785641;78;21674;-69
2021/08/15 01:08:01;;;;;;;7.05;2.12;;;;;;;14.83;68.31;99427.17;1790928;79;20980;-70
2021/08/15 01:10:28;;;;;;;4.25;2.30;;;;;;;14.78;68.33;99417.44;1781978;79;20966;-70
2021/08/15 01:12:55;;;;;;;4.67;2.00;;;;;;;14.72;68.40;99408.20;1787045;79;21025;-70
2021/08/15 01:15:22;;;;;;;5.28;2.33;;;;;;;14.71;68.57;99400.44;1793538;79;21129;-70
2021/08/15 01:17:48;;;;;;;7.57;2.33;;;;;;;14.65;68.62;99403.49;1785900;79;21000;-69
2021/08/15 01:20:15;;;;;;;6.12;2.30;;;;;;;14.58;68.64;99391.72;1764778;79;20934;-70
2021/08/15 01:22:45;;;;;;;4.83;2.02;;;;;;;14.59;68.74;99386.81;1778944;79;21542;-70
2021/08/15 01:25:14;;;;;;;6.25;1.90;;;;;;;14.54;68.84;99389.30;1749923;79;21044;-70
2021/08/15 01:27:43;;;;;;;3.65;2.10;;;;;;;14.51;69.04;99368.47;1770310;79;21926;-70
2021/08/15 01:30:14;;;;;;;3.75;1.95;;;;;;;14.46;69.08;99367.94;1787593;78;21105;-70
2021/08/15 01:32:43;;;;;;;6.35;2.40;;;;;;;14.45;69.21;99379.41;1790671;78;21006;-70
2021/08/15 01:35:11;;;;;;;8.75;2.37;;;;;;;14.42;69.24;99382.21;1790305;79;21050;-70
2021/08/15 01:37:38;;;;;;;4.87;2.17;;;;;;;14.39;69.33;99382.42;1763721;80;21626;-69
2021/08/15 01:40:07;;;;;;;5.30;2.08;;;;;;;14.39;69.48;99388.16;1772382;79;21998;-69
2021/08/15 01:42:34;;;;;;;6.20;2.87;;;;;;;14.33;69.53;99382.84;1779566;79;21020;-70
2021/08/15 01:45:06;;;;;;;;;;;;;;;14.29;69.60;99382.70;1773241;80;20965;-69
2021/08/15 01:47:33;;;;;;;4.40;2.20;;;;;;;14.27;69.84;99388.52;1729276;80;20098;-68
2021/08/15 01:50:00;;;;;;;4.35;2.30;;;;;;;14.22;69.84;99391.45;1785946;79;21032;-68
2021/08/15 01:52:27;;;;;;;4.28;2.12;;;;;;;14.22;69.96;99398.49;1793821;78;21218;-68
2021/08/15 01:54:54;;;;;;;4.97;2.08;;;;;;;14.20;70.01;99392.50;1783672;79;20981;-68
2021/08/15 01:57:21;;;;;;;4.92;2.05;;;;;;;14.22;70.26;99386.67;1757820;79;20988;-68
2021/08/15 01:59:48;;;;;;;4.77;2.30;;;;;;;14.19;70.17;99388.20;1799997;78;21538;-69
2021/08/15 02:02:15;;;;;;;3.80;2.37;;;;;;;14.19;70.25;99380.32;1799487;78;21001;-68
2021/08/15 02:04:42;;;;;;;5.95;2.47;;;;;;;14.21;70.37;99376.66;1795071;79;21076;-68
2021/08/15 02:07:08;;;;;;;4.20;1.77;;;;;;;14.22;70.45;99371.76;1796438;79;21011;-68
2021/08/15 02:09:36;;;;;;;4.42;2.17;;;;;;;14.27;70.61;99366.20;1796979;78;20961;-68
2021/08/15 02:12:03;;;;;;;7.00;1.90;;;;;;;14.26;70.58;99369.30;1771588;79;21012;-68
2021/08/15 02:14:31;;;;;;;6.22;1.85;;;;;;;14.27;70.65;99362.27;1759352;80;21001;-68
2021/08/15 02:16:58;;;;;;;2.95;1.82;;;;;;;14.30;70.74;99348.92;1741313;79;22488;-69
2021/08/15 02:19:25;;;;;;;6.23;2.00;;;;;;;14.25;70.71;99343.14;1787695;79;20981;-69
2021/08/15 02:21:52;;;;;;;3.40;1.83;;;;;;;14.26;70.85;99344.84;1767175;79;20966;-69
2021/08/15 02:24:19;;;;;;;6.80;2.42;;;;;;;14.16;70.79;99333.27;1746285;81;21548;-69
2021/08/15 02:26:45;;;;;;;6.87;2.03;;;;;;;14.29;71.01;99351.19;1789039;79;21021;-70
2021/08/15 02:29:13;;;;;;;5.65;2.35;;;;;;;14.28;71.00;99350.80;1797056;79;21570;-69
2021/08/15 02:31:40;;;;;;;10.35;2.20;;;;;;;14.26;71.06;99348.78;1772183;79;21687;-69
2021/08/15 02:34:06;;;;;;;5.03;2.25;;;;;;;14.25;71.15;99345.77;1775806;80;20942;-69
2021/08/15 02:36:33;;;;;;;4.20;2.27;;;;;;;14.22;71.15;99351.23;1765296;79;21105;-69
2021/08/15 02:39:00;;;;;;;6.17;2.58;;;;;;;14.19;71.23;99343.56;1772024;79;20895;-69
2021/08/15 02:41:26;;;;;;;4.45;2.10;;;;;;;14.14;71.33;99340.41;1793513;78;22252;-69
2021/08/15 02:43:53;;;;;;;6.42;2.37;;;;;;;14.13;71.45;99333.48;1791022;78;20994;-69
2021/08/15 02:46:20;;;;;;;6.00;2.50;;;;;;;14.08;71.44;99326.74;1790561;79;21000;-70
2021/08/15 02:48:46;;;;;;;5.25;2.17;;;;;;;14.01;71.49;99325.50;1771218;79;20984;-69
2021/08/15 02:51:13;;;;;;;5.45;2.00;;;;;;;13.96;71.54;99329.38;1763770;79;21178;-69
2021/08/15 02:53:40;;;;;;;5.53;2.13;;;;;;;13.89;71.64;99326.30;1758946;80;21264;-69
2021/08/15 02:56:07;;;;;;;3.30;2.00;;;;;;;13.84;71.68;99329.26;1791836;79;20989;-69
2021/08/15 02:58:33;;;;;;;5.70;2.40;;;;;;;13.77;71.76;99340.26;1783638;79;20981;-69
2021/08/15 03:01:00;;;;;;;5.00;2.57;;;;;;;13.73;71.90;99346.66;1781451;79;20942;-69
2021/08/15 03:03:26;;;;;;;4.28;2.17;;;;;;;13.70;71.94;99341.62;1791585;79;20930;-69
2021/08/15 03:05:53;;;;;;;5.60;2.20;;;;;;;13.65;72.08;99332.26;1793941;79;21070;-69
2021/08/15 03:08:20;;;;;;;4.55;2.45;;;;;;;13.61;72.13;99342.59;1762290;80;21004;-69
2021/08/15 03:10:47;;;;;;;4.10;2.25;;;;;;;13.56;72.18;99340.74;1787132;79;20973;-69
2021/08/15 03:13:14;;;;;;;6.05;3.20;;;;;;;13.53;72.28;99343.56;1786639;79;20973;-69
2021/08/15 03:15:40;;;;;;;5.70;2.45;;;;;;;13.53;72.40;99346.19;1731997;81;20949;-69
2021/08/15 03:18:08;;;;;;;7.20;2.60;;;;;;;13.52;72.43;99347.11;1783744;79;21792;-69
2021/08/15 03:20:35;;;;;;;5.20;2.67;;;;;;;13.51;72.47;99342.82;1791007;79;21032;-69
2021/08/15 03:23:02;;;;;;;6.27;2.30;;;;;;;13.49;72.51;99352.56;1775614;79;20973;-69
2021/08/15 03:25:28;;;;;;;5.80;2.40;;;;;;;13.48;72.61;99349.58;1791705;79;21021;-69
2021/08/15 03:27:55;;;;;;;5.08;2.30;;;;;;;13.47;72.66;99351.84;1762467;79;20953;-69
2021/08/15 03:30:22;;;;;;;5.87;2.63;;;;;;;13.47;72.70;99357.09;1779691;79;23527;-69
2021/08/15 03:32:48;;;;;;;6.78;2.83;;;;;;;13.45;72.81;99356.34;1759665;81;21092;-69
2021/08/15 03:35:15;;;;;;;6.13;2.23;;;;;;;13.47;72.87;99349.22;1774626;79;20950;-69
2021/08/15 03:37:42;;;;;;;6.78;2.90;;;;;;;13.45;72.87;99349.78;1792510;78;20922;-69
2021/08/15 03:42:57;;;;;;;3.80;2.25;;;;;;;13.48;73.07;99350.89;1710600;82;21165;-70
2021/08/15 03:45:25;;;;;;;5.62;2.37;;;;;;;13.55;73.19;99342.98;1704639;82;20989;-69
2021/08/15 03:47:52;;;;;;;6.45;2.30;;;;;;;13.59;73.19;99334.45;1702279;82;21344;-69
2021/08/15 03:50:18;;;;;;;7.60;2.30;;;;;;;13.65;73.26;99340.13;1713432;82;21570;-69
2021/08/15 03:52:45;;;;;;;4.07;2.37;;;;;;;13.74;73.29;99332.59;1701640;82;21024;-69
2021/08/15 03:55:12;;;;;;;6.00;2.87;;;;;;;13.90;73.51;99333.25;1725291;81;21064;-69
2021/08/15 03:57:39;;;;;;;5.08;2.42;;;;;;;14.10;73.49;99330.11;1727660;81;21191;-70
2021/08/15 04:00:07;;;;;;;;;;;;;;;14.32;73.44;99331.28;1732427;81;21021;-69
2021/08/15 04:02:34;;;;;;;9.40;2.33;;;;;;;14.46;73.42;99320.66;1722080;81;20150;-69
2021/08/15 04:05:01;;;;;;;;;;;;;;;14.61;73.21;99336.33;1730884;81;21016;-69
2021/08/15 04:07:27;;;;;;;5.97;2.17;;;;;;;14.62;73.03;99330.11;1716489;81;21081;-69
2021/08/15 04:09:54;;;;;;;5.23;2.10;;;;;;;14.55;73.08;99333.17;1730366;81;21167;-69
2021/08/15 04:12:20;;;;;;;6.07;2.37;;;;;;;14.50;73.17;99331.78;1731211;81;21455;-69
2021/08/15 04:14:47;;;;;;;5.13;2.90;;;;;;;14.48;73.33;99335.84;1724547;81;21661;-69
2021/08/15 04:17:16;;;;;;;6.50;2.47;;;;;;;14.51;73.46;99342.20;1719492;81;21004;-69
2021/08/15 04:19:44;;;;;;;4.00;2.00;;;;;;;14.55;73.51;99338.42;1707766;82;21962;-69
2021/08/15 04:22:12;;;;;;;6.17;2.58;;;;;;;14.59;73.55;99343.47;1718438;81;20954;-69
2021/08/15 04:24:39;;;;;;;6.22;2.45;;;;;;;14.63;73.58;99341.00;1707806;81;21559;-69
2021/08/15 04:27:06;;;;;;;6.55;2.52;;;;;;;14.70;73.72;99335.67;1714199;82;21593;-69
2021/08/15 04:29:39;;;;;;;6.53;3.03;;;;;;;15.00;73.68;99326.92;1709699;82;21398;-69
2021/08/15 04:32:06;;;;;;;5.30;2.58;;;;;;;15.00;73.68;99326.92;1729333;82;21457;-69
2021/08/15 04:34:33;;;;;;;10.60;2.67;;;;;;;15.21;73.77;99322.39;1730376;82;21174;-69
2021/08/15 04:37:00;;;;;;;;;;;;;;;15.35;73.66;99327.48;1731683;81;20985;-69
2021/08/15 04:39:27;;;;;;;9.60;2.33;;;;;;;15.45;73.70;99323.20;1723842;81;22045;-69
2021/08/15 04:41:54;;;;;;;8.33;2.58;;;;;;;15.55;73.57;99318.60;1716965;81;20970;-69
2021/08/15 04:44:21;;;;;;;9.53;2.75;;;;;;;15.66;73.60;99323.91;1716859;82;21959;-69
2021/08/15 04:46:49;;;;;;;6.10;2.37;;;;;;;15.73;73.58;99325.14;1709197;81;21033;-69
2021/08/15 04:49:16;;;;;;;6.97;2.80;;;;;;;15.84;73.56;99319.91;1727829;81;21492;-69
2021/08/15 04:51:42;;;;;;;5.45;2.47;;;;;;;15.86;73.46;99320.64;1723515;81;20919;-69
2021/08/15 04:54:09;;;;;;;8.57;2.50;;;;;;;15.86;73.45;99324.58;1685267;83;21075;-69
2021/08/15 04:56:36;;;;;;;4.22;2.55;;;;;;;15.85;73.42;99328.19;1717539;82;21846;-69
2021/08/15 04:59:03;;;;;;;6.83;2.70;;;;;;;15.91;73.55;99335.23;1712201;82;20956;-69
2021/08/15 05:01:29;;;;;;;7.72;2.70;;;;;;;15.94;73.50;99336.34;1717744;81;21051;-69
2021/08/15 05:03:56;;;;;;;5.90;2.63;;;;;;;15.95;73.61;99330.11;1693673;83;20982;-69
2021/08/15 05:06:23;;;;;;;4.17;2.53;;;;;;;15.94;73.52;99333.71;1695013;82;21437;-69
2021/08/15 05:08:49;;;;;;;8.25;2.75;;;;;;;15.98;73.66;99328.08;1668481;82;21978;-69
2021/08/15 05:11:17;;;;;;;6.08;2.70;;;;;;;15.99;73.58;99328.45;1719076;81;21061;-69
2021/08/15 05:13:45;;;;;;;7.62;2.77;;;;;;;16.03;73.58;99329.89;1712670;81;26659;-70
2021/08/15 05:16:11;;;;;;;6.20;2.65;;;;;;;16.08;73.50;99324.28;1711208;82;21060;-69
2021/08/15 05:18:38;;;;;;;5.60;2.50;;;;;;;16.15;73.59;99329.42;1705711;82;21594;-69
2021/08/15 05:21:05;;;;;;;4.17;2.08;;;;;;;16.18;73.41;99325.23;1696591;82;21147;-69
2021/08/15 05:23:32;;;;;;;7.28;2.83;;;;;;;16.21;73.46;99331.58;1691603;82;21040;-70
2021/08/15 05:25:59;;;;;;;6.25;2.83;;;;;;;16.29;73.58;99325.25;1683910;83;21554;-70
2021/08/15 05:28:25;;;;;;;5.12;2.58;;;;;;;16.44;73.65;99326.33;1695595;82;21592;-70
2021/08/15 05:30:52;;;;;;;6.05;2.60;;;;;;;16.68;73.59;99331.00;1696622;82;21053;-70
2021/08/15 05:33:19;;;;;;;5.95;2.90;;;;;;;17.16;73.88;99321.48;1710639;82;21058;-69
2021/08/15 05:35:46;;;;;;;5.92;2.35;;;;;;;17.98;73.86;99310.38;1705440;82;21076;-70
2021/08/15 05:38:13;;;;;;;8.33;2.90;;;;;;;18.53;73.07;99314.87;1703671;82;20978;-70
2021/08/15 05:40:40;;;;;;;8.60;3.45;;;;;;;18.90;73.17;99315.65;1708776;82;21506;-70
2021/08/15 05:43:07;;;;;;;9.50;3.50;;;;;;;19.45;72.79;99316.01;1699483;82;20959;-70
2021/08/15 05:45:34;;;;;;;6.45;2.83;;;;;;;19.90;72.50;99306.67;1698306;82;21107;-70
2021/08/15 05:48:01;;;;;;;;;;;;;;;20.66;72.49;99307.09;1695031;83;21020;-70
2021/08/15 05:50:28;;;;;;;7.30;3.33;;;;;;;21.20;71.65;99302.23;1703476;82;20185;-70
2021/08/15 05:52:55;;;;;;;6.03;2.67;;;;;;;21.81;71.60;99297.95;1703284;82;21032;-70
2021/08/15 05:55:21;;;;;;;;;;;;;;;22.42;71.33;99302.86;1707504;82;21097;-70
2021/08/15 05:57:48;;;;;;;6.75;2.72;;;;;;;22.81;69.37;99295.70;1714212;82;21788;-70
2021/08/15 06:00:15;;;;;;;8.53;3.15;;;;;;;23.07;70.41;99300.13;1730049;81;21017;-71
2021/08/15 06:02:43;;;;;;;6.78;2.98;;;;;;;23.76;70.14;99293.56;1721104;81;20949;-71
2021/08/15 06:05:11;;;;;;;5.33;2.62;;;;;;;24.12;69.67;99298.53;1741086;81;21009;-70
2021/08/15 06:07:37;;;;;;;9.55;3.67;;;;;;;24.55;68.36;99293.75;1704656;82;21056;-70
2021/08/15 06:10:07;;;;;;;7.17;3.17;;;;;;;25.04;68.68;99306.02;1726921;81;21543;-71
2021/08/15 06:12:38;;;;;;;7.85;2.92;;;;;;;25.63;67.76;99297.81;1711800;81;21063;-71
2021/08/15 06:15:12;;;;;;;7.65;2.87;;;;;;;26.22;67.42;99294.44;1732048;81;21271;-72
2021/08/15 06:17:37;;;;;;;11.68;3.00;;;;;;;26.43;65.84;99297.70;1717052;81;21053;-71
2021/08/15 06:20:08;;;;;;;6.42;2.60;;;;;;;26.13;65.79;99296.86;1730756;81;21501;-71
2021/08/15 06:22:41;;;;;;;8.45;2.80;;;;;;;26.12;65.80;99301.38;1733231;81;21304;-71
2021/08/15 06:25:09;;;;;;;8.15;2.90;;;;;;;26.21;65.02;99310.66;1732322;81;20977;-70
2021/08/15 06:27:59;;;;;;;6.35;2.85;;;;;;;25.60;64.26;99313.35;1730593;81;21020;-70
2021/08/15 06:30:28;;;;;;;7.80;2.80;;;;;;;24.88;63.69;99314.97;1782568;78;21091;-70
2021/08/15 06:32:56;;;;;;;9.25;3.40;;;;;;;24.10;63.77;99306.69;1776727;79;21656;-70
2021/08/15 06:35:26;;;;;;;9.48;2.85;;;;;;;23.50;63.85;99308.84;1784094;78;21069;-69
2021/08/15 06:37:55;;;;;;;8.38;3.58;;;;;;;23.56;64.08;99303.70;1783916;79;21502;-71
2021/08/15 06:40:24;;;;;;;9.13;2.90;;;;;;;23.80;63.46;99300.22;1779810;78;20962;-70
2021/08/15 06:42:52;;;;;;;8.15;3.30;;;;;;;23.75;62.99;99293.25;1782218;79;21834;-71
2021/08/15 06:45:18;;;;;;;9.40;3.50;;;;;;;23.89;62.92;99285.90;1768019;79;21534;-70
2021/08/15 06:47:45;;;;;;;;;;;;;;;24.43;63.07;99284.44;1786544;79;21026;-69
2021/08/15 06:50:12;;;;;;;5.67;2.47;;;;;;;24.50;61.46;99282.75;1773630;79;20129;-69
2021/08/15 06:52:39;;;;;;;11.65;2.70;;;;;;;24.52;61.74;99277.58;1773395;79;21666;-70
2021/08/15 06:55:06;;;;;;;7.20;2.62;;;;;;;24.45;61.24;99269.09;1771708;78;20949;-69
2021/08/15 06:57:33;;;;;;;8.95;3.87;;;;;;;24.05;60.66;99273.52;1771629;78;21067;-70
2021/08/15 07:00:01;;;;;;;8.20;3.45;;;;;;;23.46;60.52;99279.87;1783431;78;21049;-69
2021/08/15 07:02:27;;;;;;;11.22;3.05;;;;;;;23.03;60.48;99274.84;1780097;79;20953;-69
2021/08/15 07:04:54;;;;;;;9.10;2.67;;;;;;;22.52;60.38;99272.99;1784986;79;21562;-69
2021/08/15 07:07:22;;;;;;;5.87;2.60;;;;;;;21.96;60.04;99276.13;1773776;78;28294;-69
2021/08/15 07:09:49;;;;;;;10.43;2.92;;;;;;;21.53;60.39;99290.59;1789401;79;20996;-68
2021/08/15 07:12:16;;;;;;;6.28;2.52;;;;;;;21.23;60.58;99287.83;1781299;78;21032;-69
2021/08/15 07:14:44;;;;;;;8.75;2.95;;;;;;;21.01;60.54;99293.91;1788841;79;20949;-69
2021/08/15 07:17:11;;;;;;;9.20;2.80;;;;;;;21.08;60.94;99300.77;1777115;79;21051;-68
2021/08/15 07:19:37;;;;;;;;;;;;;;;21.71;61.37;99293.75;1784012;79;20945;-70
2021/08/15 07:22:04;;;;;;;7.92;2.60;;;;;;;22.28;60.56;99288.33;1783074;79;20590;-69
2021/08/15 07:24:31;;;;;;;6.95;2.55;;;;;;;22.54;60.14;99292.27;1782860;79;21126;-64
2021/08/15 07:26:58;;;;;;;5.22;2.55;;;;;;;22.60;59.96;99293.45;1788084;79;21059;-64
2021/08/15 07:29:25;;;;;;;5.53;2.30;;;;;;;22.54;59.71;99286.94;1772157;78;21492;-63
2021/08/15 07:31:53;;;;;;;7.37;2.62;;;;;;;22.73;60.22;99290.36;1762583;80;21060;-65
2021/08/15 07:34:21;;;;;;;5.03;2.42;;;;;;;22.80;59.89;99288.73;1743535;80;21605;-65
2021/08/15 07:36:47;;;;;;;7.08;2.37;;;;;;;22.76;59.10;99285.53;1756493;80;21467;-66
2021/08/15 07:39:15;;;;;;;7.10;2.40;;;;;;;22.30;58.63;99298.31;1753995;80;21048;-65
2021/08/15 07:41:42;;;;;;;5.72;2.40;;;;;;;21.99;58.55;99300.59;1748698;81;20981;-67
2021/08/15 07:44:09;;;;;;;5.50;2.10;;;;;;;21.52;58.32;99299.56;1695031;82;21068;-65
2021/08/15 07:46:36;;;;;;;6.50;2.50;;;;;;;21.40;58.75;99298.14;1762977;80;20930;-65
2021/08/15 07:49:03;;;;;;;5.70;2.30;;;;;;;21.51;59.13;99291.27;1758598;80;25489;-64
2021/08/15 07:51:30;;;;;;;8.23;2.37;;;;;;;21.76;59.26;99299.41;1766982;80;20934;-66
2021/08/15 07:53:57;;;;;;;;;;;;;;;21.73;58.46;99298.39;1754750;80;21491;-64
2021/08/15 07:56:26;;;;;;;8.38;2.27;;;;;;;21.61;58.28;99295.98;1753695;80;20186;-66
2021/08/15 07:58:52;;;;;;;11.68;2.83;;;;;;;21.63;58.35;99299.82;1759233;80;21464;-64
2021/08/15 08:01:19;;;;;;;8.80;2.95;;;;;;;21.76;58.44;99299.41;1763767;80;21524;-66
2021/08/15 08:03:46;;;;;;;7.92;2.65;;;;;;;22.07;58.73;99303.31;1735936;81;20943;-66
2021/08/15 08:06:13;;;;;;;8.85;2.65;;;;;;;22.49;58.55;99299.91;1716368;82;21001;-65
2021/08/15 08:08:39;;;;;;;5.87;2.27;;;;;;;22.86;58.02;99298.73;1724573;82;21588;-65
2021/08/15 08:11:06;;;;;;;8.73;2.37;;;;;;;22.72;57.35;99294.02;1719207;83;21021;-65
2021/08/15 08:13:33;;;;;;;6.58;2.62;;;;;;;22.62;57.17;99301.29;1705652;83;22278;-65
2021/08/15 08:16:00;;;;;;;5.62;2.17;;;;;;;22.56;57.38;99300.09;1711614;82;21280;-63
2021/08/15 08:18:27;;;;;;;;;;;;;;;22.79;57.47;99305.67;1714804;82;21032;-66
2021/08/15 08:20:53;;;;;;;5.00;2.05;;;;;;;23.14;57.21;99311.81;1714408;81;20274;-65
2021/08/15 08:23:20;;;;;;;8.75;2.30;;;;;;;23.13;56.51;99310.95;1715345;82;21489;-66
2021/08/15 08:25:47;;;;;;;;;;;;;;;23.05;56.81;99307.44;1716020;82;21094;-66
2021/08/15 08:28:13;;;;;;;;;;;;;;;23.27;56.33;99296.16;1741857;81;20513;-66
2021/08/15 08:30:40;;;;;;;;;;;;;;;23.27;55.89;99297.50;1745032;81;20510;-66
2021/08/15 08:33:07;;;;;;;8.35;2.58;;;;;;;23.40;56.25;99287.70;1737369;81;20086;-66
2021/08/15 08:35:34;;;;;;;;;;;;;;;23.51;56.36;99299.87;1736156;81;22127;-63
2021/08/15 08:38:01;;;;;;;17.95;3.08;;;;;;;23.74;55.61;99295.56;1732668;81;21213;-64
2021/08/15 08:40:27;;;;;;;;;;;;;;;23.88;55.78;99286.88;1738175;81;21504;-65
2021/08/15 08:42:54;;;;;;;6.28;2.55;;;;;;;23.95;54.73;99282.23;1733697;81;20168;-64
2021/08/15 08:45:32;;;;;;;;;;;;;;;23.63;54.75;99283.87;1741454;81;21062;-66
2021/08/15 08:47:55;;;;;;;8.65;2.12;;;;;;;23.52;54.52;99293.03;1731092;81;20298;-67
2021/08/15 08:50:23;;;;;;;5.90;2.50;;;;;;;23.59;54.97;99291.88;1739844;81;22503;-65
2021/08/15 08:52:50;;;;;;;6.92;2.72;;;;;;;23.77;54.66;99291.22;1734897;81;21113;-66
2021/08/15 08:55:18;;;;;;;8.30;2.40;;;;;;;24.11;54.61;99298.17;1738832;81;22125;-66
2021/08/15 08:57:47;;;;;;;8.35;2.42;;;;;;;24.51;53.63;99304.45;1752799;80;21009;-66
2021/08/15 09:00:16;;;;;;;6.17;2.10;;;;;;;24.85;53.97;99307.31;1761587;80;20988;-65
2021/08/15 09:02:43;;;;;;;18.07;3.47;;;;;;;24.84;53.50;99315.80;1748934;80;21067;-65
2021/08/15 09:05:11;;;;;;;8.25;2.75;;;;;;;24.58;53.02;99314.75;1743339;80;21044;-65
2021/08/15 09:07:41;;;;;;;8.80;2.77;;;;;;;24.30;53.03;99301.80;1738838;81;21092;-65
2021/08/15 09:10:12;;;;;;;4.58;2.17;;;;;;;24.13;52.57;99301.52;1736472;80;21530;-64
2021/08/15 09:12:48;;;;;;;9.68;2.45;;;;;;;23.85;52.15;99305.05;1717837;82;21119;-64
2021/08/15 09:15:21;;;;;;;5.92;2.12;;;;;;;23.56;52.48;99310.36;1716706;82;21491;-68
2021/08/15 09:17:54;;;;;;;5.85;1.90;;;;;;;23.64;52.43;99305.55;1712504;81;21021;-66
2021/08/15 09:20:25;;;;;;;10.68;2.67;;;;;;;23.57;51.65;99305.36;1721704;82;21711;-66
2021/08/15 09:22:56;;;;;;;5.42;2.33;;;;;;;23.48;51.87;99311.69;1717000;82;20952;-65
2021/08/15 09:28:03;;;;;;;9.00;2.70;;;;;;;23.08;51.42;99321.28;1737249;80;22058;-66
2021/08/15 09:30:32;;;;;;;4.90;2.12;;;;;;;22.82;51.60;99318.66;1763755;80;21547;-66
2021/08/15 09:33:09;;;;;;;9.85;2.00;;;;;;;22.64;51.48;99320.59;1765291;79;21048;-65
2021/08/15 09:35:39;;;;;;;5.17;2.35;;;;;;;22.45;51.33;99330.47;1762949;80;20942;-66
2021/08/15 09:38:17;;;;;;;5.80;2.20;;;;;;;22.36;51.47;99329.27;1769281;80;21559;-65
2021/08/15 09:40:47;;;;;;;4.72;2.20;;;;;;;22.19;51.36;99324.34;1762190;80;21206;-64
2021/08/15 09:43:27;;;;;;;7.80;2.33;;;;;;;22.28;51.67;99318.08;1761525;80;21028;-65
2021/08/15 09:45:57;;;;;;;5.05;2.08;;;;;;;22.39;51.50;99323.13;1764975;79;21016;-66
2021/08/15 09:48:37;;;;;;;6.60;2.42;;;;;;;22.46;51.42;99316.20;1766389;79;21143;-69
2021/08/15 09:51:17;;;;;;;5.62;2.12;;;;;;;22.62;51.53;99307.44;1766051;79;21533;-69
2021/08/15 09:53:59;;;;;;;7.70;2.42;;;;;;;22.85;51.13;99314.34;1766019;80;21108;-67
2021/08/15 09:56:39;;;;;;;6.28;2.20;;;;;;;22.98;51.31;99310.76;1745251;80;21022;-69
2021/08/15 09:59:21;;;;;;;4.42;2.17;;;;;;;23.14;50.91;99302.49;1772482;80;20986;-68
2021/08/15 10:01:55;;;;;;;5.53;2.12;;;;;;;23.28;51.19;99316.50;1767224;80;21032;-68
2021/08/15 10:04:24;;;;;;;9.20;2.85;;;;;;;23.38;50.76;99319.82;1760580;80;20946;-68
2021/08/15 10:06:54;;;;;;;6.97;2.20;;;;;;;23.31;50.56;99308.17;1772038;80;21124;-69
2021/08/15 10:09:22;;;;;;;6.50;2.45;;;;;;;23.35;50.74;99312.16;1722593;81;21031;-69
2021/08/15 10:11:50;;;;;;;8.18;2.70;;;;;;;23.38;50.49;99311.83;1725165;81;20973;-70
2021/08/15 10:14:18;;;;;;;7.33;2.50;;;;;;;23.40;50.36;99312.51;1718926;82;20998;-69
2021/08/15 10:17:03;;;;;;;6.42;2.60;;;;;;;23.35;50.32;99309.50;1726560;81;20969;-69
2021/08/15 10:19:54;;;;;;;4.47;2.37;;;;;;;23.20;49.96;99313.31;1725343;81;21072;-70
2021/08/15 10:22:33;;;;;;;6.78;2.65;;;;;;;23.03;50.16;99320.11;1720022;82;21020;-70
2021/08/15 10:25:04;;;;;;;7.05;2.30;;;;;;;23.12;50.41;99324.45;1746144;81;21010;-70
2021/08/15 10:27:45;;;;;;;5.67;2.37;;;;;;;23.20;50.03;99321.80;1750271;80;20942;-72
2021/08/15 10:30:24;;;;;;;5.95;2.10;;;;;;;23.23;50.06;99320.14;1746784;80;20953;-70
2021/08/15 10:33:05;;;;;;;8.08;2.37;;;;;;;23.17;50.23;99322.14;1757474;80;21772;-69
2021/08/15 10:35:34;;;;;;;8.93;2.35;;;;;;;23.26;49.90;99318.48;1780579;79;21084;-68
2021/08/15 10:38:08;;;;;;;6.83;2.27;;;;;;;23.06;49.72;99323.27;1783509;78;21049;-69
2021/08/15 10:40:48;;;;;;;8.50;3.12;;;;;;;22.84;49.63;99329.98;1782500;79;21047;-69
2021/08/15 10:43:25;;;;;;;7.30;2.30;;;;;;;22.74;49.75;99321.28;1731002;81;21080;-68
2021/08/15 10:46:15;;;;;;;12.03;3.20;;;;;;;22.70;49.72;99326.60;1773082;79;21828;-67
2021/08/15 10:49:03;;;;;;;10.08;2.37;;;;;;;22.67;49.54;99330.92;1730935;81;20977;-69
2021/08/15 10:51:51;;;;;;;29.25;4.15;;;;;;;22.63;49.42;99324.23;1783857;79;20949;-68
2021/08/15 10:54:42;;;;;;;10.28;2.40;;;;;;;22.53;49.33;99333.17;1733257;82;21026;-68
2021/08/15 10:57:09;;;;;;;6.22;2.55;;;;;;;22.43;49.36;99324.47;1782731;79;20945;-68
2021/08/15 10:59:42;;;;;;;10.85;2.40;;;;;;;22.48;49.32;99330.16;1781326;79;21545;-70
2021/08/15 11:02:18;;;;;;;5.62;2.08;;;;;;;22.58;49.40;99309.27;1783401;79;21529;-68
2021/08/15 11:04:57;;;;;;;7.12;2.25;;;;;;;22.73;49.41;99318.30;1783697;79;21062;-69
2021/08/15 11:07:41;;;;;;;11.53;2.55;;;;;;;22.87;49.23;99316.35;1786427;79;21537;-69
2021/08/15 11:10:13;;;;;;;5.55;2.40;;;;;;;22.89;49.20;99317.03;1759565;79;21035;-70
2021/08/15 11:13:16;;;;;;;11.12;2.52;;;;;;;22.84;49.01;99319.34;1783609;79;22119;-71
2021/08/15 11:15:43;;;;;;;10.53;2.20;;;;;;;22.79;49.04;99321.64;1784146;79;21573;-69
2021/08/15 11:18:12;;;;;;;8.85;2.45;;;;;;;22.66;49.03;99318.59;1781151;79;21052;-69
2021/08/15 11:20:47;;;;;;;21.30;3.27;;;;;;;22.68;49.20;99324.59;1785601;78;20976;-69
2021/08/15 11:23:26;;;;;;;8.40;2.42;;;;;;;22.75;49.00;99317.14;1788751;79;21620;-69
2021/08/15 11:25:53;;;;;;;7.17;2.20;;;;;;;22.81;48.97;99326.31;1779068;78;22438;-69
2021/08/15 11:28:23;;;;;;;5.83;2.20;;;;;;;22.83;48.87;99320.34;1786957;79;21131;-71
2021/08/15 11:30:56;;;;;;;4.55;2.20;;;;;;;22.85;48.73;99318.33;1780411;79;21029;-66
2021/08/15 11:33:24;;;;;;;4.80;2.08;;;;;;;22.87;48.64;99319.02;1786250;79;21043;-71
2021/08/15 11:35:54;;;;;;;8.63;2.22;;;;;;;23.04;48.93;99311.11;1787502;79;20969;-66
2021/08/15 11:38:20;;;;;;;6.30;1.75;;;;;;;23.18;48.71;99315.80;1785912;79;21043;-65
2021/08/15 11:40:53;;;;;;;11.93;2.40;;;;;;;23.31;48.70;99318.00;1779396;79;20964;-66
2021/08/15 11:43:24;;;;;;;5.58;2.02;;;;;;;23.27;48.48;99306.82;1785687;79;20996;-67
2021/08/15 11:45:56;;;;;;;4.65;2.40;;;;;;;23.25;48.23;99314.16;1776232;79;21012;-69
2021/08/15 11:48:26;;;;;;;7.70;2.40;;;;;;;23.18;48.26;99313.14;1792753;79;20987;-69
2021/08/15 11:51:00;;;;;;;9.03;2.05;;;;;;;23.35;48.34;99309.50;1776240;79;21090;-67